createdAt,value
2019-04-30T00:00:25.839Z,10.80
2019-04-30T00:02:57.645Z,10.80
2019-04-30T00:05:27.501Z,10.90
2019-04-30T00:07:58.459Z,10.90
2019-04-30T00:10:36.023Z,10.90
2019-04-30T00:13:00.606Z,11.00
2019-04-30T00:15:30.720Z,11.20
2019-04-30T00:18:01.834Z,11.30
2019-04-30T00:20:37.150Z,11.30
2019-04-30T00:23:05.180Z,11.30
2019-04-30T00:25:35.676Z,11.30
2019-04-30T00:28:08.692Z,11.20
2019-04-30T00:30:39.373Z,11.20
2019-04-30T00:33:09.246Z,11.20
2019-04-30T00:35:39.392Z,11.20
2019-04-30T00:38:09.361Z,11.20
2019-04-30T00:41:05.815Z,11.20
2019-04-30T00:43:37.587Z,11.20
2019-04-30T00:46:08.370Z,11.20
2019-04-30T00:48:38.332Z,11.00
2019-04-30T00:51:17.706Z,11.10
2019-04-30T00:53:43.856Z,11.00
2019-04-30T00:56:19.966Z,10.90
2019-04-30T00:58:49.811Z,11.00
2019-04-30T01:01:26.525Z,11.00
2019-04-30T01:04:06.934Z,11.10
2019-04-30T01:06:36.826Z,11.20
2019-04-30T01:09:08.585Z,11.30
2019-04-30T01:11:39.823Z,11.30
2019-04-30T01:14:11.683Z,11.30
2019-04-30T01:16:43.440Z,11.20
2019-04-30T01:19:28.900Z,11.30
2019-04-30T01:21:49.186Z,11.20
2019-04-30T01:24:23.493Z,11.10
2019-04-30T01:26:52.859Z,11.10
2019-04-30T01:29:24.029Z,11.20
2019-04-30T01:31:54.012Z,11.00
2019-04-30T01:34:24.007Z,10.90
2019-04-30T01:36:55.201Z,10.90
2019-04-30T01:39:28.432Z,10.70
2019-04-30T01:41:58.707Z,10.60
2019-04-30T01:44:29.569Z,10.50
2019-04-30T01:47:00.998Z,10.30
2019-04-30T01:49:41.724Z,10.30
2019-04-30T01:52:02.670Z,10.30
2019-04-30T01:54:34.116Z,10.50
2019-04-30T01:57:23.228Z,10.30
2019-04-30T02:00:13.001Z,10.10
2019-04-30T02:02:46.417Z,9.90
2019-04-30T02:05:18.858Z,10.00
2019-04-30T02:07:49.051Z,10.20
2019-04-30T02:10:19.025Z,10.30
2019-04-30T02:12:49.446Z,10.20
2019-04-30T02:15:20.841Z,10.10
2019-04-30T02:17:50.921Z,10.30
2019-04-30T02:20:21.836Z,10.30
2019-04-30T02:22:53.453Z,10.30
2019-04-30T02:25:23.360Z,10.30
2019-04-30T02:27:53.449Z,10.10
2019-04-30T02:30:24.466Z,10.20
2019-04-30T02:32:54.389Z,10.10
2019-04-30T02:35:30.138Z,10.20
2019-04-30T02:38:10.887Z,10.30
2019-04-30T02:40:42.828Z,10.30
2019-04-30T02:43:14.136Z,10.20
2019-04-30T02:45:46.499Z,10.20
2019-04-30T02:48:19.421Z,10.10
2019-04-30T02:50:52.473Z,10.20
2019-04-30T02:53:50.964Z,10.20
2019-04-30T02:56:26.541Z,10.20
2019-04-30T02:58:55.297Z,10.30
2019-04-30T03:01:25.278Z,10.30
2019-04-30T03:03:55.233Z,10.40
2019-04-30T03:06:25.253Z,10.50
2019-04-30T03:08:56.968Z,10.40
2019-04-30T03:11:29.855Z,10.40
2019-04-30T03:13:59.444Z,10.50
2019-04-30T03:16:53.177Z,10.20
2019-04-30T03:19:29.719Z,10.00
2019-04-30T03:22:07.062Z,10.00
2019-04-30T03:24:42.259Z,10.20
2019-04-30T03:27:10.177Z,10.20
2019-04-30T03:29:40.691Z,10.40
2019-04-30T03:32:13.323Z,10.40
2019-04-30T03:34:42.840Z,10.50
2019-04-30T03:37:13.551Z,10.40
2019-04-30T03:39:43.637Z,10.30
2019-04-30T03:42:13.618Z,10.30
2019-04-30T03:44:44.146Z,10.40
2019-04-30T03:47:14.077Z,10.40
2019-04-30T03:49:44.058Z,10.20
2019-04-30T03:52:14.071Z,10.10
2019-04-30T03:54:44.077Z,10.10
2019-04-30T03:57:16.129Z,10.20
2019-04-30T03:59:49.961Z,10.40
2019-04-30T04:02:25.138Z,10.50
2019-04-30T04:05:01.151Z,10.60
2019-04-30T04:07:44.509Z,10.60
2019-04-30T04:10:19.607Z,10.50
2019-04-30T04:12:49.959Z,10.40
2019-04-30T04:15:20.120Z,10.30
2019-04-30T04:17:50.548Z,10.20
2019-04-30T04:20:20.630Z,10.20
2019-04-30T04:22:50.642Z,10.30
2019-04-30T04:25:23.006Z,10.20
2019-04-30T04:27:52.955Z,10.20
2019-04-30T04:30:22.868Z,10.00
2019-04-30T04:32:52.962Z,10.10
2019-04-30T04:35:23.016Z,10.10
2019-04-30T04:37:53.030Z,9.90
2019-04-30T04:40:23.074Z,9.90
2019-04-30T04:42:53.090Z,10.10
2019-04-30T04:45:23.109Z,10.20
2019-04-30T04:47:53.102Z,10.20
2019-04-30T04:50:23.212Z,10.20
2019-04-30T04:52:53.299Z,10.30
2019-04-30T04:55:23.331Z,10.30
2019-04-30T04:57:54.105Z,10.40
2019-04-30T05:00:24.190Z,10.40
2019-04-30T05:02:55.811Z,10.50
2019-04-30T05:05:25.829Z,10.50
2019-04-30T05:07:55.693Z,10.30
2019-04-30T05:10:25.699Z,10.40
2019-04-30T05:12:55.708Z,10.40
2019-04-30T05:15:25.697Z,10.30
2019-04-30T05:17:55.716Z,10.40
2019-04-30T05:20:25.629Z,10.20
2019-04-30T05:22:55.641Z,10.30
2019-04-30T05:25:25.549Z,10.40
2019-04-30T05:27:55.570Z,10.50
2019-04-30T05:30:25.578Z,10.40
2019-04-30T05:32:55.525Z,10.50
2019-04-30T05:35:25.569Z,10.30
2019-04-30T05:37:55.653Z,10.30
2019-04-30T05:40:25.793Z,10.40
2019-04-30T05:42:55.814Z,10.60
2019-04-30T05:45:29.064Z,10.70
2019-04-30T05:47:59.277Z,10.90
2019-04-30T05:50:29.687Z,11.10
2019-04-30T05:53:00.910Z,11.30
2019-04-30T05:55:30.946Z,11.40
2019-04-30T05:58:01.556Z,11.50
2019-04-30T06:00:31.707Z,11.60
2019-04-30T06:03:01.795Z,11.60
2019-04-30T06:05:31.866Z,11.60
2019-04-30T06:08:01.873Z,11.70
2019-04-30T06:10:33.521Z,11.90
2019-04-30T06:13:11.806Z,12.00
2019-04-30T06:15:46.187Z,11.90
2019-04-30T06:18:16.217Z,11.90
2019-04-30T06:20:46.185Z,12.10
2019-04-30T06:23:16.198Z,12.10
2019-04-30T06:25:57.589Z,12.10
2019-04-30T06:28:19.600Z,12.20
2019-04-30T06:30:49.717Z,12.30
2019-04-30T06:33:20.408Z,12.40
2019-04-30T06:35:51.897Z,12.60
2019-04-30T06:38:29.053Z,12.70
2019-04-30T06:40:59.413Z,12.80
2019-04-30T06:43:31.071Z,12.90
2019-04-30T06:46:01.114Z,13.00
2019-04-30T06:48:33.885Z,13.10
2019-04-30T06:51:04.073Z,13.30
2019-04-30T06:53:34.058Z,13.40
2019-04-30T06:56:04.089Z,13.50
2019-04-30T06:58:34.074Z,13.60
2019-04-30T07:01:04.761Z,13.70
2019-04-30T07:03:35.342Z,13.80
2019-04-30T07:06:05.409Z,13.90
2019-04-30T07:08:54.655Z,13.90
2019-04-30T07:11:23.709Z,13.90
2019-04-30T07:13:56.177Z,14.10
2019-04-30T07:16:30.561Z,14.20
2019-04-30T07:19:05.718Z,14.40
2019-04-30T07:21:49.593Z,14.50
2019-04-30T07:24:20.969Z,14.60
2019-04-30T07:26:54.689Z,14.70
2019-04-30T07:29:29.578Z,14.90
2019-04-30T07:32:11.901Z,15.10
2019-04-30T07:34:53.312Z,15.20
2019-04-30T07:37:42.583Z,15.30
2019-04-30T07:52:22.954Z,15.70
2019-04-30T08:01:10.399Z,15.80
2019-04-30T08:03:56.267Z,15.80
2019-04-30T08:09:50.518Z,15.90
2019-04-30T08:12:54.565Z,16.10
2019-04-30T08:15:33.075Z,16.20
2019-04-30T08:18:12.068Z,16.20
2019-04-30T08:23:59.358Z,16.30
2019-04-30T08:29:34.352Z,16.50
2019-04-30T08:32:04.369Z,16.60
2019-04-30T08:34:42.211Z,16.60
2019-04-30T08:37:17.600Z,16.70
2019-04-30T08:40:00.296Z,16.70
2019-04-30T08:42:40.977Z,16.80
2019-04-30T08:45:13.418Z,16.80
2019-04-30T08:47:45.037Z,16.80
2019-04-30T08:50:20.085Z,16.80
2019-04-30T08:52:51.749Z,16.90
2019-04-30T08:55:23.469Z,16.90
2019-04-30T08:57:53.488Z,16.90
2019-04-30T09:00:25.005Z,16.90
2019-04-30T09:02:55.686Z,16.90
2019-04-30T09:05:33.173Z,16.90
2019-04-30T09:08:06.362Z,16.90
2019-04-30T09:10:39.292Z,17.00
2019-04-30T09:16:11.229Z,16.90
2019-04-30T09:18:49.442Z,16.90
2019-04-30T09:21:22.557Z,16.90
2019-04-30T09:23:59.636Z,17.00
2019-04-30T09:26:41.724Z,17.00
2019-04-30T09:29:20.163Z,17.10
2019-04-30T09:31:59.258Z,17.10
2019-04-30T09:34:29.501Z,17.20
2019-04-30T09:37:00.369Z,17.30
2019-04-30T09:39:30.310Z,17.30
2019-04-30T09:42:03.900Z,17.30
2019-04-30T09:44:33.879Z,17.20
2019-04-30T09:47:03.859Z,17.30
2019-04-30T09:49:34.947Z,17.40
2019-04-30T09:52:06.130Z,17.50
2019-04-30T09:54:36.359Z,17.40
2019-04-30T09:57:09.126Z,17.40
2019-04-30T09:59:39.664Z,17.40
2019-04-30T10:02:10.645Z,17.30
2019-04-30T10:04:41.260Z,17.30
2019-04-30T10:07:13.097Z,17.40
2019-04-30T10:09:43.139Z,17.40
2019-04-30T10:12:15.062Z,17.50
2019-04-30T10:14:49.498Z,17.50
2019-04-30T10:17:24.065Z,17.50
2019-04-30T10:19:55.579Z,17.50
2019-04-30T10:22:25.612Z,17.50
2019-04-30T10:24:55.581Z,17.50
2019-04-30T10:27:29.143Z,17.60
2019-04-30T10:29:59.408Z,17.70
2019-04-30T10:32:30.075Z,17.70
2019-04-30T10:35:00.142Z,17.70
2019-04-30T10:37:30.229Z,17.70
2019-04-30T10:40:00.205Z,17.70
2019-04-30T10:42:34.722Z,17.80
2019-04-30T10:45:07.141Z,17.80
2019-04-30T10:47:38.836Z,17.80
2019-04-30T10:50:10.132Z,17.80
2019-04-30T10:52:40.146Z,17.90
2019-04-30T10:55:10.918Z,17.90
2019-04-30T10:57:40.930Z,18.10
2019-04-30T11:00:14.715Z,18.20
2019-04-30T11:02:44.803Z,18.20
2019-04-30T11:05:15.090Z,18.30
2019-04-30T11:07:45.055Z,18.30
2019-04-30T11:10:18.882Z,18.30
2019-04-30T11:12:49.084Z,18.40
2019-04-30T11:15:20.783Z,18.30
2019-04-30T11:17:50.992Z,18.20
2019-04-30T11:20:22.265Z,18.20
2019-04-30T11:22:54.752Z,18.20
2019-04-30T11:25:24.919Z,18.20
2019-04-30T11:27:55.727Z,18.10
2019-04-30T11:30:26.282Z,18.20
2019-04-30T11:32:56.536Z,18.10
2019-04-30T11:35:26.879Z,18.20
2019-04-30T11:37:56.975Z,18.30
2019-04-30T11:40:34.496Z,18.40
2019-04-30T11:43:01.589Z,18.40
2019-04-30T11:45:53.697Z,18.40
2019-04-30T11:48:25.276Z,18.40
2019-04-30T11:50:55.317Z,18.60
2019-04-30T11:53:28.831Z,18.50
2019-04-30T11:55:59.100Z,18.50
2019-04-30T11:58:30.525Z,18.50
2019-04-30T12:01:01.611Z,18.60
2019-04-30T12:03:34.175Z,18.80
2019-04-30T12:06:05.758Z,18.70
2019-04-30T12:08:39.421Z,18.70
2019-04-30T12:11:11.056Z,18.80
2019-04-30T12:13:43.453Z,18.80
2019-04-30T12:16:13.587Z,18.70
2019-04-30T12:18:44.269Z,18.80
2019-04-30T12:21:18.692Z,18.90
2019-04-30T12:23:56.322Z,18.90
2019-04-30T12:26:26.321Z,18.90
2019-04-30T12:29:00.054Z,19.00
2019-04-30T12:31:30.086Z,19.00
2019-04-30T12:34:03.243Z,19.00
2019-04-30T12:36:33.187Z,19.10
2019-04-30T12:39:03.155Z,19.10
2019-04-30T12:41:36.378Z,19.10
2019-04-30T12:44:06.593Z,19.20
2019-04-30T12:46:38.647Z,19.10
2019-04-30T12:49:10.415Z,19.20
2019-04-30T12:51:50.563Z,19.20
2019-04-30T12:54:34.637Z,19.30
2019-04-30T12:57:10.903Z,19.30
2019-04-30T12:59:41.222Z,19.30
2019-04-30T13:02:12.802Z,19.30
2019-04-30T13:04:49.225Z,19.30
2019-04-30T13:07:23.972Z,19.30
2019-04-30T13:10:00.693Z,19.30
2019-04-30T13:12:33.069Z,19.40
2019-04-30T13:15:07.390Z,19.40
2019-04-30T13:17:37.241Z,19.40
2019-04-30T13:20:18.154Z,19.40
2019-04-30T13:22:39.657Z,19.40
2019-04-30T13:25:11.142Z,19.50
2019-04-30T13:27:54.152Z,19.50
2019-04-30T13:30:30.099Z,19.40
2019-04-30T13:33:16.428Z,19.40
2019-04-30T13:35:46.406Z,19.40
2019-04-30T13:38:21.118Z,19.50
2019-04-30T13:40:58.903Z,19.50
2019-04-30T13:43:39.931Z,19.50
2019-04-30T13:46:08.631Z,19.50
2019-04-30T13:48:39.754Z,19.70
2019-04-30T13:51:09.853Z,19.80
2019-04-30T13:53:39.906Z,19.90
2019-04-30T13:56:10.236Z,19.90
2019-04-30T13:58:40.402Z,19.80
2019-04-30T14:01:11.457Z,19.80
2019-04-30T14:03:45.977Z,19.80
2019-04-30T14:06:19.004Z,19.90
2019-04-30T14:08:51.750Z,20.00
2019-04-30T14:11:21.773Z,20.00
2019-04-30T14:13:51.853Z,20.00
2019-04-30T14:16:24.732Z,20.00
2019-04-30T14:18:56.393Z,19.90
2019-04-30T14:21:33.139Z,19.80
2019-04-30T14:23:59.754Z,19.70
2019-04-30T14:26:29.934Z,19.70
2019-04-30T14:28:59.856Z,19.70
2019-04-30T14:31:34.397Z,19.60
2019-04-30T14:34:06.586Z,19.60
2019-04-30T14:36:39.209Z,19.60
2019-04-30T14:39:14.492Z,19.60
2019-04-30T14:41:43.030Z,19.60
2019-04-30T14:44:31.189Z,19.60
2019-04-30T14:47:03.799Z,19.50
2019-04-30T14:49:39.469Z,19.50
2019-04-30T14:52:10.214Z,19.50
2019-04-30T14:54:44.789Z,19.60
2019-04-30T14:57:20.657Z,19.60
2019-04-30T15:00:01.987Z,19.70
2019-04-30T15:02:34.310Z,19.60
2019-04-30T15:05:09.471Z,19.50
2019-04-30T15:07:39.739Z,19.50
2019-04-30T15:10:15.597Z,19.50
2019-04-30T15:12:46.607Z,19.50
2019-04-30T15:15:19.199Z,19.40
2019-04-30T15:17:49.436Z,19.50
2019-04-30T15:20:20.857Z,19.60
2019-04-30T15:22:52.465Z,19.60
2019-04-30T15:25:34.324Z,19.60
2019-04-30T15:28:03.197Z,19.80
2019-04-30T15:30:41.853Z,19.70
2019-04-30T15:33:13.485Z,19.70
2019-04-30T15:35:45.679Z,19.80
2019-04-30T15:38:23.428Z,19.80
2019-04-30T15:40:59.029Z,19.90
2019-04-30T15:43:29.145Z,19.90
2019-04-30T15:45:59.089Z,20.00
2019-04-30T15:48:29.065Z,20.00
2019-04-30T15:50:59.127Z,20.00
2019-04-30T15:53:29.077Z,20.00
2019-04-30T15:56:00.657Z,20.00
2019-04-30T15:58:32.389Z,19.90
2019-04-30T16:01:02.779Z,19.90
2019-04-30T16:03:37.636Z,19.90
2019-04-30T16:06:08.334Z,19.90
2019-04-30T16:08:55.974Z,19.90
2019-04-30T16:11:43.870Z,19.90
2019-04-30T16:14:30.485Z,19.90
2019-04-30T16:17:02.090Z,19.90
2019-04-30T16:19:33.061Z,19.90
2019-04-30T16:22:03.009Z,19.80
2019-04-30T16:24:33.130Z,19.90
2019-04-30T16:27:03.137Z,19.80
2019-04-30T16:29:33.175Z,19.80
2019-04-30T16:32:03.185Z,19.70
2019-04-30T16:34:33.299Z,19.70
2019-04-30T16:37:03.318Z,19.60
2019-04-30T16:39:33.301Z,19.50
2019-04-30T16:42:03.379Z,19.40
2019-04-30T16:44:33.346Z,19.30
2019-04-30T16:47:13.073Z,19.40
2019-04-30T16:49:35.101Z,19.40
2019-04-30T16:52:05.111Z,19.50
2019-04-30T16:54:35.120Z,19.70
2019-04-30T16:57:06.919Z,19.70
2019-04-30T16:59:39.022Z,19.50
2019-04-30T17:02:09.443Z,19.40
2019-04-30T17:04:57.157Z,19.30
2019-04-30T17:07:38.756Z,19.10
2019-04-30T17:10:10.961Z,19.00
2019-04-30T17:12:45.397Z,19.00
2019-04-30T17:15:25.759Z,18.90
2019-04-30T17:17:55.802Z,18.80
2019-04-30T17:20:25.817Z,18.80
2019-04-30T17:22:55.916Z,18.70
2019-04-30T17:25:25.897Z,18.70
2019-04-30T17:27:55.953Z,18.60
2019-04-30T17:30:25.940Z,18.60
2019-04-30T17:32:55.951Z,18.50
2019-04-30T17:35:26.061Z,18.50
2019-04-30T17:37:56.077Z,18.40
2019-04-30T17:40:26.076Z,18.40
2019-04-30T17:42:56.090Z,18.30
2019-04-30T17:45:26.085Z,18.30
2019-04-30T17:47:56.101Z,18.30
2019-04-30T17:50:26.135Z,18.20
2019-04-30T17:52:56.195Z,18.10
2019-04-30T17:55:26.210Z,18.10
2019-04-30T17:57:56.301Z,18.10
2019-04-30T18:00:29.320Z,18.00
2019-04-30T18:02:59.289Z,18.00
2019-04-30T18:05:29.317Z,17.90
2019-04-30T18:07:59.465Z,17.90
2019-04-30T18:10:29.517Z,17.90
2019-04-30T18:12:59.469Z,17.90
2019-04-30T18:15:30.950Z,17.90
2019-04-30T18:18:17.737Z,17.90
2019-04-30T18:20:56.976Z,17.80
2019-04-30T18:23:37.658Z,17.80
2019-04-30T18:26:16.069Z,17.80
2019-04-30T18:28:46.026Z,17.70
2019-04-30T18:31:16.022Z,17.70
2019-04-30T18:33:45.972Z,17.70
2019-04-30T18:36:15.985Z,17.60
2019-04-30T18:38:45.969Z,17.60
2019-04-30T18:41:19.985Z,17.60
2019-04-30T18:43:50.103Z,17.60
2019-04-30T18:46:20.156Z,17.60
2019-04-30T18:48:52.546Z,17.50
2019-04-30T18:51:35.861Z,17.50
2019-04-30T18:53:55.500Z,17.50
2019-04-30T18:56:25.510Z,17.40
2019-04-30T18:58:55.570Z,17.30
2019-04-30T19:01:25.833Z,17.30
2019-04-30T19:03:55.892Z,17.20
2019-04-30T19:06:26.777Z,17.20
2019-04-30T19:08:58.714Z,17.10
2019-04-30T19:11:43.749Z,17.10
2019-04-30T19:14:33.597Z,17.10
2019-04-30T19:17:11.057Z,17.10
2019-04-30T19:19:48.770Z,17.10
2019-04-30T19:22:18.757Z,17.00
2019-04-30T19:24:58.240Z,17.00
2019-04-30T19:27:20.440Z,17.00
2019-04-30T19:29:51.686Z,17.00
2019-04-30T19:32:21.879Z,17.00
2019-04-30T19:34:51.853Z,17.00
2019-04-30T19:37:21.754Z,17.00
2019-04-30T19:39:51.901Z,17.00
2019-04-30T19:42:21.826Z,17.00
2019-04-30T19:44:58.981Z,17.00
2019-04-30T19:47:24.829Z,17.00
2019-04-30T19:49:55.338Z,16.90
2019-04-30T19:52:25.315Z,16.90
2019-04-30T19:54:55.353Z,16.90
2019-04-30T19:57:25.264Z,16.90
2019-04-30T19:59:56.291Z,16.80
2019-04-30T20:02:26.297Z,16.80
2019-04-30T20:04:56.237Z,16.80
2019-04-30T20:07:26.090Z,16.80
2019-04-30T20:10:02.883Z,16.80
2019-04-30T20:12:29.067Z,16.80
2019-04-30T20:15:00.571Z,16.80
2019-04-30T20:17:30.581Z,16.70
2019-04-30T20:20:00.584Z,16.70
2019-04-30T20:22:30.410Z,16.70
2019-04-30T20:25:00.865Z,16.70
2019-04-30T20:27:30.934Z,16.70
2019-04-30T20:30:00.889Z,16.70
2019-04-30T20:32:36.324Z,16.60
2019-04-30T20:35:05.473Z,16.60
2019-04-30T20:37:37.017Z,16.60
2019-04-30T20:40:11.150Z,16.60
2019-04-30T20:42:41.045Z,16.60
2019-04-30T20:45:11.252Z,16.60
2019-04-30T20:47:41.217Z,16.60
2019-04-30T20:50:11.101Z,16.60
2019-04-30T20:52:41.061Z,16.60
2019-04-30T20:55:11.058Z,16.60
2019-04-30T20:57:40.893Z,16.50
2019-04-30T21:00:10.977Z,16.50
2019-04-30T21:02:42.173Z,16.50
2019-04-30T21:05:13.817Z,16.50
2019-04-30T21:07:43.645Z,16.50
2019-04-30T21:10:13.651Z,16.50
2019-04-30T21:12:43.714Z,16.40
2019-04-30T21:15:13.889Z,16.40
2019-04-30T21:17:43.965Z,16.40
2019-04-30T21:20:14.411Z,16.40
2019-04-30T21:22:44.411Z,16.30
2019-04-30T21:25:14.459Z,16.30
2019-04-30T21:27:44.402Z,16.30
2019-04-30T21:30:14.879Z,16.40
2019-04-30T21:32:59.341Z,16.40
2019-04-30T21:35:39.621Z,16.30
2019-04-30T21:38:09.957Z,16.30
2019-04-30T21:40:39.925Z,16.30
2019-04-30T21:43:09.861Z,16.30
2019-04-30T21:45:39.986Z,16.30
2019-04-30T21:48:09.950Z,16.30
2019-04-30T21:50:39.994Z,16.30
2019-04-30T21:53:10.019Z,16.30
2019-04-30T21:55:40.088Z,16.30
2019-04-30T21:58:11.004Z,16.30
2019-04-30T22:00:42.613Z,16.30
2019-04-30T22:03:14.312Z,16.40
2019-04-30T22:05:44.354Z,16.40
2019-04-30T22:08:14.367Z,16.40
2019-04-30T22:10:44.401Z,16.40
2019-04-30T22:13:14.413Z,16.30
2019-04-30T22:15:44.401Z,16.30
2019-04-30T22:18:14.385Z,16.30
2019-04-30T22:20:44.306Z,16.30
2019-04-30T22:23:15.245Z,16.30
2019-04-30T22:25:45.172Z,16.30
2019-04-30T22:28:15.094Z,16.20
2019-04-30T22:30:44.965Z,16.10
2019-04-30T22:33:14.925Z,16.00
2019-04-30T22:35:46.463Z,16.00
2019-04-30T22:38:19.044Z,16.00
2019-04-30T22:40:50.053Z,16.00
2019-04-30T22:43:19.953Z,16.10
2019-04-30T22:45:55.073Z,16.10
2019-04-30T22:48:25.041Z,16.10
2019-04-30T22:50:55.166Z,16.00
2019-04-30T22:53:25.243Z,16.00
2019-04-30T22:55:55.281Z,16.00
2019-04-30T22:58:25.290Z,16.00
2019-04-30T23:00:56.869Z,16.00
2019-04-30T23:03:33.781Z,15.90
2019-04-30T23:06:03.854Z,15.80
2019-04-30T23:08:33.753Z,15.80
2019-04-30T23:11:03.960Z,15.70
2019-04-30T23:13:33.921Z,15.60
2019-04-30T23:16:04.069Z,15.50
2019-04-30T23:18:34.103Z,15.50
2019-04-30T23:21:04.110Z,15.50
2019-04-30T23:23:34.120Z,15.60
2019-04-30T23:26:04.189Z,15.60
2019-04-30T23:28:35.482Z,15.60
2019-04-30T23:31:05.382Z,15.40
2019-04-30T23:33:35.256Z,15.30
2019-04-30T23:36:05.217Z,15.20
2019-04-30T23:38:35.093Z,15.20
2019-04-30T23:41:04.999Z,15.20
2019-04-30T23:43:35.012Z,15.20
2019-04-30T23:46:05.121Z,15.10
2019-04-30T23:48:35.000Z,15.10
2019-04-30T23:51:05.345Z,15.10
2019-04-30T23:53:35.273Z,15.10
2019-04-30T23:56:05.245Z,15.00
2019-04-30T23:58:35.185Z,15.00
